KNID

China Lake Naws (Armitage Field) Airport

China Lake, California, USA
METAR KNID 252156Z 20016G21KT 10SM FEW090 26/02 A2990 RMK AO2 SLP111 T02610022 $
Observed Flight Rules
May-25 @ 21:56 UTC (31 minutes ago) Visual Flight Rules
Wind Visibility Clouds
200° at 16 knots
 Gusting to 21 knots
10 miles
  • Few at 9,000' AGL
Temperatures Readings
Current 26°C / 79°F
Dewpoint 2°C / 36°F
Humidity 21%
Altimeter 29.9" Hg
Pressure 1011.1 hPa
Elevation 696
METAR KNID 252156Z 20016G21KT 10SM FEW090 26/02 A2990 RMK AO2 SLP111 T02610022 $
Observed Flight Rules
May-25 @ 21:56 UTC
(31 minutes ago)
VFR
Wind Visibility
200° at 16 knots
 Gusting to 21 knots
10 miles
Clouds
  • Few at 9,000' AGL
Temperature Dewpoint
26°C / 79°F 2°C / 36°F
Humidity Altimeter Pressure
21% 29.9" Hg 1011.1 hPa